sensor_id;sensor_type;location;lat;lon;timestamp;temperature;humidity
6986;DHT22;3533;51.246;6.850;2024-03-23T00:55:56;20.10;48.30
6986;DHT22;3533;51.246;6.850;2024-03-23T00:58:21;20.10;48.30
6986;DHT22;3533;51.246;6.850;2024-03-23T01:00:47;20.10;48.30
6986;DHT22;3533;51.246;6.850;2024-03-23T01:03:12;20.00;48.20
6986;DHT22;3533;51.246;6.850;2024-03-23T01:05:38;20.10;48.30
6986;DHT22;3533;51.246;6.850;2024-03-23T01:08:04;20.10;48.30
6986;DHT22;3533;51.246;6.850;2024-03-23T01:10:30;20.00;48.20
6986;DHT22;3533;51.246;6.850;2024-03-23T01:12:56;20.10;48.30
6986;DHT22;3533;51.246;6.850;2024-03-23T01:15:21;20.00;48.20
6986;DHT22;3533;51.246;6.850;2024-03-23T01:17:47;20.10;48.30
6986;DHT22;3533;51.246;6.850;2024-03-23T01:20:12;20.00;48.20
6986;DHT22;3533;51.246;6.850;2024-03-23T01:22:38;20.10;48.20
6986;DHT22;3533;51.246;6.850;2024-03-23T01:25:04;20.10;48.30
6986;DHT22;3533;51.246;6.850;2024-03-23T01:27:29;20.10;48.30
6986;DHT22;3533;51.246;6.850;2024-03-23T01:29:55;20.00;48.20
6986;DHT22;3533;51.246;6.850;2024-03-23T01:32:20;20.10;48.30
6986;DHT22;3533;51.246;6.850;2024-03-23T01:34:47;20.00;48.20
6986;DHT22;3533;51.246;6.850;2024-03-23T01:37:12;20.00;48.20
6986;DHT22;3533;51.246;6.850;2024-03-23T01:39:38;20.00;48.20
6986;DHT22;3533;51.246;6.850;2024-03-23T01:42:03;20.10;48.30
6986;DHT22;3533;51.246;6.850;2024-03-23T01:44:29;20.00;48.20
6986;DHT22;3533;51.246;6.850;2024-03-23T01:46:55;20.00;48.20
6986;DHT22;3533;51.246;6.850;2024-03-23T01:49:20;20.00;48.20
6986;DHT22;3533;51.246;6.850;2024-03-23T01:51:46;20.10;48.20
6986;DHT22;3533;51.246;6.850;2024-03-23T01:54:12;20.00;48.20
6986;DHT22;3533;51.246;6.850;2024-03-23T01:56:38;20.00;48.20
6986;DHT22;3533;51.246;6.850;2024-03-23T01:59:07;20.00;49.00
6986;DHT22;3533;51.246;6.850;2024-03-23T02:01:34;20.00;48.10
6986;DHT22;3533;51.246;6.850;2024-03-23T02:04:01;20.10;48.30
6986;DHT22;3533;51.246;6.850;2024-03-23T02:06:27;20.00;48.10
6986;DHT22;3533;51.246;6.850;2024-03-23T02:08:54;20.10;48.30
6986;DHT22;3533;51.246;6.850;2024-03-23T02:11:20;20.00;48.20
6986;DHT22;3533;51.246;6.850;2024-03-23T02:13:45;20.00;48.20
6986;DHT22;3533;51.246;6.850;2024-03-23T02:16:11;20.00;48.20
6986;DHT22;3533;51.246;6.850;2024-03-23T02:18:37;20.10;48.30
6986;DHT22;3533;51.246;6.850;2024-03-23T02:21:03;20.00;48.10
6986;DHT22;3533;51.246;6.850;2024-03-23T02:23:28;20.00;48.10
6986;DHT22;3533;51.246;6.850;2024-03-23T02:25:54;20.00;48.20
6986;DHT22;3533;51.246;6.850;2024-03-23T02:28:20;20.10;48.20
6986;DHT22;3533;51.246;6.850;2024-03-23T02:30:46;20.00;48.10
6986;DHT22;3533;51.246;6.850;2024-03-23T02:33:11;20.00;48.10
6986;DHT22;3533;51.246;6.850;2024-03-23T02:35:37;20.00;48.20
6986;DHT22;3533;51.246;6.850;2024-03-23T02:38:02;20.00;48.10
6986;DHT22;3533;51.246;6.850;2024-03-23T02:40:28;20.00;48.10
6986;DHT22;3533;51.246;6.850;2024-03-23T02:42:54;20.00;48.20
6986;DHT22;3533;51.246;6.850;2024-03-23T02:45:20;20.00;48.10
6986;DHT22;3533;51.246;6.850;2024-03-23T02:47:45;20.00;48.10
6986;DHT22;3533;51.246;6.850;2024-03-23T02:50:11;20.00;48.10
6986;DHT22;3533;51.246;6.850;2024-03-23T02:52:37;20.00;48.10
6986;DHT22;3533;51.246;6.850;2024-03-23T02:55:03;20.00;48.10
6986;DHT22;3533;51.246;6.850;2024-03-23T02:57:29;20.00;48.10
6986;DHT22;3533;51.246;6.850;2024-03-23T02:59:55;20.00;48.10
6986;DHT22;3533;51.246;6.850;2024-03-23T03:02:21;20.00;48.10
6986;DHT22;3533;51.246;6.850;2024-03-23T03:04:47;20.00;48.10
6986;DHT22;3533;51.246;6.850;2024-03-23T03:07:13;20.00;48.10
6986;DHT22;3533;51.246;6.850;2024-03-23T03:09:39;20.00;48.20
6986;DHT22;3533;51.246;6.850;2024-03-23T03:12:08;20.00;48.10
6986;DHT22;3533;51.246;6.850;2024-03-23T03:14:36;20.00;48.10
6986;DHT22;3533;51.246;6.850;2024-03-23T03:17:03;20.00;48.10
6986;DHT22;3533;51.246;6.850;2024-03-23T03:19:29;20.00;48.10
6986;DHT22;3533;51.246;6.850;2024-03-23T03:21:55;20.00;48.10
6986;DHT22;3533;51.246;6.850;2024-03-23T03:24:21;20.00;48.20
6986;DHT22;3533;51.246;6.850;2024-03-23T03:26:46;20.00;48.20
6986;DHT22;3533;51.246;6.850;2024-03-23T03:29:12;20.00;48.20
6986;DHT22;3533;51.246;6.850;2024-03-23T03:31:39;20.00;48.20
6986;DHT22;3533;51.246;6.850;2024-03-23T03:34:04;20.00;48.10
6986;DHT22;3533;51.246;6.850;2024-03-23T03:36:30;20.00;48.20
6986;DHT22;3533;51.246;6.850;2024-03-23T03:38:55;20.00;48.20
6986;DHT22;3533;51.246;6.850;2024-03-23T03:41:21;20.00;48.20
6986;DHT22;3533;51.246;6.850;2024-03-23T03:43:46;20.00;48.20
6986;DHT22;3533;51.246;6.850;2024-03-23T03:46:12;20.00;48.20
6986;DHT22;3533;51.246;6.850;2024-03-23T03:48:37;20.00;48.20
6986;DHT22;3533;51.246;6.850;2024-03-23T03:51:04;20.00;48.20
6986;DHT22;3533;51.246;6.850;2024-03-23T03:53:29;19.90;48.00
6986;DHT22;3533;51.246;6.850;2024-03-23T03:55:56;19.90;48.10
6986;DHT22;3533;51.246;6.850;2024-03-23T03:58:22;20.00;48.10
6986;DHT22;3533;51.246;6.850;2024-03-23T04:00:47;19.90;48.00
6986;DHT22;3533;51.246;6.850;2024-03-23T04:03:13;19.90;48.00
6986;DHT22;3533;51.246;6.850;2024-03-23T04:05:38;19.90;48.10
6986;DHT22;3533;51.246;6.850;2024-03-23T04:08:07;19.90;48.10
6986;DHT22;3533;51.246;6.850;2024-03-23T04:10:32;19.90;48.10
6986;DHT22;3533;51.246;6.850;2024-03-23T04:12:58;20.00;48.20
6986;DHT22;3533;51.246;6.850;2024-03-23T04:15:23;19.90;48.10
6986;DHT22;3533;51.246;6.850;2024-03-23T04:17:49;19.90;48.10
6986;DHT22;3533;51.246;6.850;2024-03-23T04:20:15;19.90;48.10
6986;DHT22;3533;51.246;6.850;2024-03-23T04:22:42;20.00;48.20
6986;DHT22;3533;51.246;6.850;2024-03-23T04:25:08;20.00;48.20
6986;DHT22;3533;51.246;6.850;2024-03-23T04:27:36;20.00;48.10
6986;DHT22;3533;51.246;6.850;2024-03-23T04:30:03;20.00;48.10
6986;DHT22;3533;51.246;6.850;2024-03-23T04:32:30;19.90;48.00
6986;DHT22;3533;51.246;6.850;2024-03-23T04:34:55;19.90;48.00
6986;DHT22;3533;51.246;6.850;2024-03-23T04:37:21;19.90;48.00
6986;DHT22;3533;51.246;6.850;2024-03-23T04:39:47;19.90;48.00
6986;DHT22;3533;51.246;6.850;2024-03-23T04:42:15;20.00;48.20
6986;DHT22;3533;51.246;6.850;2024-03-23T04:44:40;19.90;48.00
6986;DHT22;3533;51.246;6.850;2024-03-23T04:47:06;19.90;48.00
6986;DHT22;3533;51.246;6.850;2024-03-23T04:49:31;20.00;48.10
6986;DHT22;3533;51.246;6.850;2024-03-23T04:51:57;19.90;47.90
6986;DHT22;3533;51.246;6.850;2024-03-23T04:54:22;19.90;48.00
6986;DHT22;3533;51.246;6.850;2024-03-23T04:56:48;20.00;48.10
6986;DHT22;3533;51.246;6.850;2024-03-23T04:59:13;19.90;48.00
6986;DHT22;3533;51.246;6.850;2024-03-23T05:01:39;20.00;48.00
6986;DHT22;3533;51.246;6.850;2024-03-23T05:04:07;20.00;48.00
6986;DHT22;3533;51.246;6.850;2024-03-23T05:06:33;20.00;47.90
6986;DHT22;3533;51.246;6.850;2024-03-23T05:08:59;20.00;48.00
6986;DHT22;3533;51.246;6.850;2024-03-23T05:11:25;20.00;48.00
6986;DHT22;3533;51.246;6.850;2024-03-23T05:13:50;20.00;48.00
6986;DHT22;3533;51.246;6.850;2024-03-23T05:16:16;20.00;48.00
6986;DHT22;3533;51.246;6.850;2024-03-23T05:18:42;20.00;47.90
6986;DHT22;3533;51.246;6.850;2024-03-23T05:21:07;20.00;47.90
6986;DHT22;3533;51.246;6.850;2024-03-23T05:23:33;20.00;47.90
6986;DHT22;3533;51.246;6.850;2024-03-23T05:25:58;20.00;47.80
6986;DHT22;3533;51.246;6.850;2024-03-23T05:28:24;20.00;47.80
6986;DHT22;3533;51.246;6.850;2024-03-23T05:30:51;20.00;47.80
6986;DHT22;3533;51.246;6.850;2024-03-23T05:33:18;20.00;47.90
6986;DHT22;3533;51.246;6.850;2024-03-23T05:35:44;20.00;47.90
6986;DHT22;3533;51.246;6.850;2024-03-23T05:38:10;20.00;47.80
6986;DHT22;3533;51.246;6.850;2024-03-23T05:40:36;20.00;47.80
6986;DHT22;3533;51.246;6.850;2024-03-23T05:43:03;20.00;47.80
6986;DHT22;3533;51.246;6.850;2024-03-23T05:45:29;20.00;47.80
6986;DHT22;3533;51.246;6.850;2024-03-23T05:47:54;20.00;47.80
6986;DHT22;3533;51.246;6.850;2024-03-23T05:50:22;20.00;47.80
6986;DHT22;3533;51.246;6.850;2024-03-23T05:52:48;20.00;47.80
6986;DHT22;3533;51.246;6.850;2024-03-23T05:55:14;20.00;48.60
6986;DHT22;3533;51.246;6.850;2024-03-23T05:57:40;20.00;47.80
6986;DHT22;3533;51.246;6.850;2024-03-23T06:00:06;20.00;47.80
6986;DHT22;3533;51.246;6.850;2024-03-23T06:02:35;20.00;47.70
6986;DHT22;3533;51.246;6.850;2024-03-23T06:05:01;20.00;47.70
6986;DHT22;3533;51.246;6.850;2024-03-23T06:07:27;20.00;47.80
6986;DHT22;3533;51.246;6.850;2024-03-23T06:09:53;20.00;47.70
6986;DHT22;3533;51.246;6.850;2024-03-23T06:12:18;20.00;47.70
6986;DHT22;3533;51.246;6.850;2024-03-23T06:14:44;20.00;47.70
6986;DHT22;3533;51.246;6.850;2024-03-23T06:17:09;20.00;47.70
6986;DHT22;3533;51.246;6.850;2024-03-23T06:19:35;20.00;47.70
6986;DHT22;3533;51.246;6.850;2024-03-23T06:22:00;20.00;47.70
6986;DHT22;3533;51.246;6.850;2024-03-23T06:24:26;20.00;47.60
6986;DHT22;3533;51.246;6.850;2024-03-23T06:26:52;20.00;47.70
6986;DHT22;3533;51.246;6.850;2024-03-23T06:29:17;20.00;47.70
6986;DHT22;3533;51.246;6.850;2024-03-23T06:31:43;20.00;47.60
6986;DHT22;3533;51.246;6.850;2024-03-23T06:34:08;20.00;47.60
6986;DHT22;3533;51.246;6.850;2024-03-23T06:36:34;20.00;47.60
6986;DHT22;3533;51.246;6.850;2024-03-23T06:39:00;20.00;47.60
6986;DHT22;3533;51.246;6.850;2024-03-23T06:41:26;20.00;47.60
6986;DHT22;3533;51.246;6.850;2024-03-23T06:43:51;20.00;47.60
6986;DHT22;3533;51.246;6.850;2024-03-23T06:46:17;20.00;47.60
6986;DHT22;3533;51.246;6.850;2024-03-23T06:48:45;20.00;47.60
6986;DHT22;3533;51.246;6.850;2024-03-23T06:51:10;20.10;47.70
6986;DHT22;3533;51.246;6.850;2024-03-23T06:53:36;20.00;47.60
6986;DHT22;3533;51.246;6.850;2024-03-23T06:56:01;20.10;47.70
6986;DHT22;3533;51.246;6.850;2024-03-23T06:58:27;20.00;47.60
6986;DHT22;3533;51.246;6.850;2024-03-23T07:00:53;20.10;47.70
6986;DHT22;3533;51.246;6.850;2024-03-23T07:03:18;20.00;47.60
6986;DHT22;3533;51.246;6.850;2024-03-23T07:05:44;20.10;47.60
6986;DHT22;3533;51.246;6.850;2024-03-23T07:08:11;20.00;47.50
6986;DHT22;3533;51.246;6.850;2024-03-23T07:10:39;20.00;47.50
6986;DHT22;3533;51.246;6.850;2024-03-23T07:13:05;20.00;47.50
6986;DHT22;3533;51.246;6.850;2024-03-23T07:15:30;20.10;47.60
6986;DHT22;3533;51.246;6.850;2024-03-23T07:17:56;20.00;47.50
6986;DHT22;3533;51.246;6.850;2024-03-23T07:20:22;20.10;47.60
6986;DHT22;3533;51.246;6.850;2024-03-23T07:22:48;20.00;47.50
6986;DHT22;3533;51.246;6.850;2024-03-23T07:25:14;20.10;47.60
6986;DHT22;3533;51.246;6.850;2024-03-23T07:27:40;20.10;47.60
6986;DHT22;3533;51.246;6.850;2024-03-23T07:30:06;20.00;47.50
6986;DHT22;3533;51.246;6.850;2024-03-23T07:32:32;20.00;47.40
6986;DHT22;3533;51.246;6.850;2024-03-23T07:34:57;20.00;47.50
6986;DHT22;3533;51.246;6.850;2024-03-23T07:37:23;20.10;47.60
6986;DHT22;3533;51.246;6.850;2024-03-23T07:39:49;20.10;47.60
6986;DHT22;3533;51.246;6.850;2024-03-23T07:42:15;20.10;47.50
6986;DHT22;3533;51.246;6.850;2024-03-23T07:44:40;20.10;47.60
6986;DHT22;3533;51.246;6.850;2024-03-23T07:47:06;20.10;47.50
6986;DHT22;3533;51.246;6.850;2024-03-23T07:49:32;20.10;47.50
6986;DHT22;3533;51.246;6.850;2024-03-23T07:51:58;20.10;47.50
6986;DHT22;3533;51.246;6.850;2024-03-23T07:54:23;20.10;47.50
6986;DHT22;3533;51.246;6.850;2024-03-23T07:56:49;20.10;47.60
6986;DHT22;3533;51.246;6.850;2024-03-23T07:59:14;20.10;47.50
6986;DHT22;3533;51.246;6.850;2024-03-23T08:01:40;20.10;47.50
6986;DHT22;3533;51.246;6.850;2024-03-23T08:04:06;20.10;47.50
6986;DHT22;3533;51.246;6.850;2024-03-23T08:06:31;20.10;47.60
6986;DHT22;3533;51.246;6.850;2024-03-23T08:08:58;20.10;47.60
6986;DHT22;3533;51.246;6.850;2024-03-23T08:11:27;20.10;47.60
6986;DHT22;3533;51.246;6.850;2024-03-23T08:13:53;20.10;47.50
6986;DHT22;3533;51.246;6.850;2024-03-23T08:16:19;20.10;47.60
6986;DHT22;3533;51.246;6.850;2024-03-23T08:18:45;20.10;47.50
6986;DHT22;3533;51.246;6.850;2024-03-23T08:21:11;20.10;47.50
6986;DHT22;3533;51.246;6.850;2024-03-23T08:23:37;20.10;47.60
6986;DHT22;3533;51.246;6.850;2024-03-23T08:26:08;20.10;47.50
6986;DHT22;3533;51.246;6.850;2024-03-23T08:28:35;20.10;47.50
6986;DHT22;3533;51.246;6.850;2024-03-23T08:31:02;20.10;47.50
6986;DHT22;3533;51.246;6.850;2024-03-23T08:33:28;20.10;46.80
6986;DHT22;3533;51.246;6.850;2024-03-23T08:36:01;20.10;47.50
6986;DHT22;3533;51.246;6.850;2024-03-23T08:38:28;20.10;47.50
6986;DHT22;3533;51.246;6.850;2024-03-23T08:43:24;20.10;47.50
6986;DHT22;3533;51.246;6.850;2024-03-23T08:45:49;20.10;47.50
6986;DHT22;3533;51.246;6.850;2024-03-23T08:48:15;20.10;47.50
6986;DHT22;3533;51.246;6.850;2024-03-23T08:50:41;20.10;47.50
6986;DHT22;3533;51.246;6.850;2024-03-23T08:53:06;20.20;47.50
6986;DHT22;3533;51.246;6.850;2024-03-23T08:55:32;20.10;47.50
6986;DHT22;3533;51.246;6.850;2024-03-23T08:57:57;20.10;48.20
6986;DHT22;3533;51.246;6.850;2024-03-23T09:00:23;20.10;47.50
6986;DHT22;3533;51.246;6.850;2024-03-23T09:02:49;20.10;47.50
6986;DHT22;3533;51.246;6.850;2024-03-23T09:05:14;20.10;47.50
6986;DHT22;3533;51.246;6.850;2024-03-23T09:07:40;20.20;47.60
6986;DHT22;3533;51.246;6.850;2024-03-23T09:10:07;20.20;47.60
6986;DHT22;3533;51.246;6.850;2024-03-23T09:12:32;20.10;47.50
6986;DHT22;3533;51.246;6.850;2024-03-23T09:14:58;20.20;47.60
6986;DHT22;3533;51.246;6.850;2024-03-23T09:17:24;20.20;47.60
6986;DHT22;3533;51.246;6.850;2024-03-23T09:19:49;20.20;47.50
6986;DHT22;3533;51.246;6.850;2024-03-23T09:22:15;20.20;47.50
6986;DHT22;3533;51.246;6.850;2024-03-23T09:24:40;20.20;47.50
6986;DHT22;3533;51.246;6.850;2024-03-23T09:27:06;20.20;47.50
6986;DHT22;3533;51.246;6.850;2024-03-23T09:29:32;20.20;47.50
6986;DHT22;3533;51.246;6.850;2024-03-23T09:31:57;20.20;47.50
6986;DHT22;3533;51.246;6.850;2024-03-23T09:34:23;20.20;47.40
6986;DHT22;3533;51.246;6.850;2024-03-23T09:36:52;20.20;47.40
6986;DHT22;3533;51.246;6.850;2024-03-23T09:39:18;20.20;47.30
6986;DHT22;3533;51.246;6.850;2024-03-23T09:41:45;20.20;47.30
6986;DHT22;3533;51.246;6.850;2024-03-23T09:44:10;20.20;47.30
6986;DHT22;3533;51.246;6.850;2024-03-23T09:46:36;20.20;47.30
6986;DHT22;3533;51.246;6.850;2024-03-23T09:49:03;20.20;47.20
6986;DHT22;3533;51.246;6.850;2024-03-23T09:51:31;20.20;47.20
6986;DHT22;3533;51.246;6.850;2024-03-23T09:53:57;20.20;47.20
6986;DHT22;3533;51.246;6.850;2024-03-23T09:56:22;20.20;47.10
6986;DHT22;3533;51.246;6.850;2024-03-23T09:58:49;20.20;47.10
6986;DHT22;3533;51.246;6.850;2024-03-23T10:01:15;20.20;47.10
6986;DHT22;3533;51.246;6.850;2024-03-23T10:03:45;20.20;47.10
6986;DHT22;3533;51.246;6.850;2024-03-23T10:06:11;20.20;47.80
6986;DHT22;3533;51.246;6.850;2024-03-23T10:08:40;20.20;47.10
6986;DHT22;3533;51.246;6.850;2024-03-23T10:11:14;20.20;47.00
6986;DHT22;3533;51.246;6.850;2024-03-23T10:13:42;20.30;47.00
6986;DHT22;3533;51.246;6.850;2024-03-23T10:16:09;20.20;46.90
6986;DHT22;3533;51.246;6.850;2024-03-23T10:18:39;20.30;47.00
6986;DHT22;3533;51.246;6.850;2024-03-23T10:23:31;20.30;47.00
6986;DHT22;3533;51.246;6.850;2024-03-23T10:26:19;20.30;47.00
6986;DHT22;3533;51.246;6.850;2024-03-23T10:31:24;20.30;47.00
6986;DHT22;3533;51.246;6.850;2024-03-23T10:33:50;20.30;47.00
6986;DHT22;3533;51.246;6.850;2024-03-23T10:36:19;20.30;47.00
6986;DHT22;3533;51.246;6.850;2024-03-23T10:38:46;20.30;46.90
6986;DHT22;3533;51.246;6.850;2024-03-23T10:41:12;20.30;47.00
6986;DHT22;3533;51.246;6.850;2024-03-23T10:43:38;20.30;47.10
6986;DHT22;3533;51.246;6.850;2024-03-23T10:46:05;20.30;47.00
6986;DHT22;3533;51.246;6.850;2024-03-23T10:48:33;20.30;46.90
6986;DHT22;3533;51.246;6.850;2024-03-23T10:50:59;20.30;46.90
6986;DHT22;3533;51.246;6.850;2024-03-23T10:53:27;20.30;46.90
6986;DHT22;3533;51.246;6.850;2024-03-23T10:55:54;20.30;46.90
6986;DHT22;3533;51.246;6.850;2024-03-23T10:58:26;20.20;46.80
6986;DHT22;3533;51.246;6.850;2024-03-23T11:00:52;20.30;46.90
6986;DHT22;3533;51.246;6.850;2024-03-23T11:03:35;20.20;46.80
6986;DHT22;3533;51.246;6.850;2024-03-23T11:06:05;20.30;46.90
6986;DHT22;3533;51.246;6.850;2024-03-23T11:08:35;20.20;46.80
6986;DHT22;3533;51.246;6.850;2024-03-23T11:11:20;20.30;46.80
6986;DHT22;3533;51.246;6.850;2024-03-23T11:13:51;20.20;46.80
6986;DHT22;3533;51.246;6.850;2024-03-23T11:16:27;20.20;46.80
6986;DHT22;3533;51.246;6.850;2024-03-23T11:19:33;20.30;46.80
6986;DHT22;3533;51.246;6.850;2024-03-23T11:22:00;20.30;46.90
6986;DHT22;3533;51.246;6.850;2024-03-23T11:24:26;20.20;46.80
6986;DHT22;3533;51.246;6.850;2024-03-23T11:26:52;20.30;47.70
6986;DHT22;3533;51.246;6.850;2024-03-23T11:29:18;20.30;47.00
6986;DHT22;3533;51.246;6.850;2024-03-23T11:31:50;20.20;46.80
6986;DHT22;3533;51.246;6.850;2024-03-23T11:34:16;20.20;46.80
6986;DHT22;3533;51.246;6.850;2024-03-23T11:36:46;20.20;46.80
6986;DHT22;3533;51.246;6.850;2024-03-23T11:39:19;20.20;46.80
6986;DHT22;3533;51.246;6.850;2024-03-23T11:41:56;20.30;46.90
6986;DHT22;3533;51.246;6.850;2024-03-23T11:44:25;20.20;47.00
6986;DHT22;3533;51.246;6.850;2024-03-23T11:46:51;20.20;46.90
6986;DHT22;3533;51.246;6.850;2024-03-23T11:51:48;20.20;46.80
6986;DHT22;3533;51.246;6.850;2024-03-23T11:54:14;20.20;46.80
6986;DHT22;3533;51.246;6.850;2024-03-23T11:56:39;20.20;46.80
6986;DHT22;3533;51.246;6.850;2024-03-23T11:59:06;20.20;46.90
6986;DHT22;3533;51.246;6.850;2024-03-23T12:01:32;20.20;46.80
6986;DHT22;3533;51.246;6.850;2024-03-23T12:03:57;20.20;46.80
6986;DHT22;3533;51.246;6.850;2024-03-23T12:06:23;20.30;46.90
6986;DHT22;3533;51.246;6.850;2024-03-23T12:08:49;20.30;46.80
6986;DHT22;3533;51.246;6.850;2024-03-23T12:11:18;20.20;46.80
6986;DHT22;3533;51.246;6.850;2024-03-23T12:13:45;20.20;46.80
6986;DHT22;3533;51.246;6.850;2024-03-23T12:16:17;20.20;46.80
6986;DHT22;3533;51.246;6.850;2024-03-23T12:18:49;20.20;46.80
6986;DHT22;3533;51.246;6.850;2024-03-23T12:21:16;20.20;46.80
6986;DHT22;3533;51.246;6.850;2024-03-23T12:23:43;20.30;46.80
6986;DHT22;3533;51.246;6.850;2024-03-23T12:26:14;20.20;46.80
6986;DHT22;3533;51.246;6.850;2024-03-23T12:28:40;20.20;46.70
6986;DHT22;3533;51.246;6.850;2024-03-23T12:31:05;20.20;46.70
6986;DHT22;3533;51.246;6.850;2024-03-23T12:33:31;20.20;46.70
6986;DHT22;3533;51.246;6.850;2024-03-23T12:35:57;20.20;46.70
6986;DHT22;3533;51.246;6.850;2024-03-23T12:38:22;20.20;46.70
6986;DHT22;3533;51.246;6.850;2024-03-23T12:40:49;20.20;46.70
6986;DHT22;3533;51.246;6.850;2024-03-23T12:43:15;20.20;46.70
6986;DHT22;3533;51.246;6.850;2024-03-23T12:45:41;20.20;46.70
6986;DHT22;3533;51.246;6.850;2024-03-23T12:48:07;20.20;46.70
6986;DHT22;3533;51.246;6.850;2024-03-23T12:50:33;20.20;46.70
6986;DHT22;3533;51.246;6.850;2024-03-23T12:52:59;20.20;46.80
6986;DHT22;3533;51.246;6.850;2024-03-23T12:55:24;20.20;46.70
6986;DHT22;3533;51.246;6.850;2024-03-23T12:57:50;20.20;46.70
6986;DHT22;3533;51.246;6.850;2024-03-23T13:00:16;20.20;46.70
6986;DHT22;3533;51.246;6.850;2024-03-23T13:02:42;20.20;46.70
6986;DHT22;3533;51.246;6.850;2024-03-23T13:05:08;20.20;46.70
6986;DHT22;3533;51.246;6.850;2024-03-23T13:07:36;20.20;46.80
6986;DHT22;3533;51.246;6.850;2024-03-23T13:10:04;20.20;46.70
6986;DHT22;3533;51.246;6.850;2024-03-23T13:12:30;20.20;46.70
6986;DHT22;3533;51.246;6.850;2024-03-23T13:14:59;20.20;46.70
6986;DHT22;3533;51.246;6.850;2024-03-23T13:17:25;20.20;46.70
6986;DHT22;3533;51.246;6.850;2024-03-23T13:19:52;20.20;46.70
6986;DHT22;3533;51.246;6.850;2024-03-23T13:22:18;20.20;46.70
6986;DHT22;3533;51.246;6.850;2024-03-23T13:24:43;20.20;46.70
6986;DHT22;3533;51.246;6.850;2024-03-23T13:27:10;20.20;46.70
6986;DHT22;3533;51.246;6.850;2024-03-23T13:29:36;20.20;46.70
6986;DHT22;3533;51.246;6.850;2024-03-23T13:32:03;20.20;46.70
6986;DHT22;3533;51.246;6.850;2024-03-23T13:34:29;20.20;46.70
6986;DHT22;3533;51.246;6.850;2024-03-23T13:36:55;20.20;46.70
6986;DHT22;3533;51.246;6.850;2024-03-23T13:39:24;20.20;46.70
6986;DHT22;3533;51.246;6.850;2024-03-23T13:41:50;20.20;46.70
6986;DHT22;3533;51.246;6.850;2024-03-23T13:44:16;20.20;46.70
6986;DHT22;3533;51.246;6.850;2024-03-23T13:46:43;20.20;46.70
6986;DHT22;3533;51.246;6.850;2024-03-23T13:49:26;20.20;46.70
6986;DHT22;3533;51.246;6.850;2024-03-23T13:51:53;20.20;46.70
6986;DHT22;3533;51.246;6.850;2024-03-23T13:54:19;20.20;46.70
6986;DHT22;3533;51.246;6.850;2024-03-23T13:56:45;20.20;46.70
6986;DHT22;3533;51.246;6.850;2024-03-23T13:59:11;20.20;46.70
6986;DHT22;3533;51.246;6.850;2024-03-23T14:01:37;20.20;46.70
6986;DHT22;3533;51.246;6.850;2024-03-23T14:04:03;20.20;46.70
6986;DHT22;3533;51.246;6.850;2024-03-23T14:06:28;20.20;46.70
6986;DHT22;3533;51.246;6.850;2024-03-23T14:08:54;20.20;46.70
6986;DHT22;3533;51.246;6.850;2024-03-23T14:11:19;20.20;46.70
6986;DHT22;3533;51.246;6.850;2024-03-23T14:13:45;20.20;46.70
6986;DHT22;3533;51.246;6.850;2024-03-23T14:16:10;20.20;46.70
6986;DHT22;3533;51.246;6.850;2024-03-23T14:18:36;20.20;46.70
6986;DHT22;3533;51.246;6.850;2024-03-23T14:21:02;20.20;46.70
6986;DHT22;3533;51.246;6.850;2024-03-23T14:23:30;20.20;46.70
6986;DHT22;3533;51.246;6.850;2024-03-23T14:25:58;20.20;46.70
6986;DHT22;3533;51.246;6.850;2024-03-23T14:28:24;20.20;46.70
6986;DHT22;3533;51.246;6.850;2024-03-23T14:30:50;20.20;46.70
6986;DHT22;3533;51.246;6.850;2024-03-23T14:33:17;20.20;46.70
6986;DHT22;3533;51.246;6.850;2024-03-23T14:35:43;20.20;46.70
6986;DHT22;3533;51.246;6.850;2024-03-23T14:38:09;20.20;46.60
6986;DHT22;3533;51.246;6.850;2024-03-23T14:40:35;20.20;46.50
6986;DHT22;3533;51.246;6.850;2024-03-23T14:43:01;20.20;46.60
6986;DHT22;3533;51.246;6.850;2024-03-23T14:45:27;20.20;46.50
6986;DHT22;3533;51.246;6.850;2024-03-23T14:47:53;20.20;46.60
6986;DHT22;3533;51.246;6.850;2024-03-23T14:50:19;20.20;46.50
6986;DHT22;3533;51.246;6.850;2024-03-23T14:52:45;20.20;46.50
6986;DHT22;3533;51.246;6.850;2024-03-23T14:55:12;20.20;46.50
6986;DHT22;3533;51.246;6.850;2024-03-23T14:57:38;20.20;46.50
6986;DHT22;3533;51.246;6.850;2024-03-23T15:00:09;20.20;46.50
6986;DHT22;3533;51.246;6.850;2024-03-23T15:02:38;20.20;46.50
6986;DHT22;3533;51.246;6.850;2024-03-23T15:05:04;20.20;46.50
6986;DHT22;3533;51.246;6.850;2024-03-23T15:07:31;20.20;46.50
6986;DHT22;3533;51.246;6.850;2024-03-23T15:09:56;20.20;46.50
6986;DHT22;3533;51.246;6.850;2024-03-23T15:12:22;20.20;46.50
6986;DHT22;3533;51.246;6.850;2024-03-23T15:14:48;20.20;46.50
6986;DHT22;3533;51.246;6.850;2024-03-23T15:17:14;20.20;46.50
6986;DHT22;3533;51.246;6.850;2024-03-23T15:19:39;20.20;46.50
6986;DHT22;3533;51.246;6.850;2024-03-23T15:22:07;20.20;46.40
6986;DHT22;3533;51.246;6.850;2024-03-23T15:24:34;20.20;46.50
6986;DHT22;3533;51.246;6.850;2024-03-23T15:27:01;20.20;46.50
6986;DHT22;3533;51.246;6.850;2024-03-23T15:29:26;20.20;46.40
6986;DHT22;3533;51.246;6.850;2024-03-23T15:31:52;20.20;46.30
6986;DHT22;3533;51.246;6.850;2024-03-23T15:34:21;20.20;46.30
6986;DHT22;3533;51.246;6.850;2024-03-23T15:36:49;20.20;46.10
6986;DHT22;3533;51.246;6.850;2024-03-23T15:39:18;20.20;46.10
6986;DHT22;3533;51.246;6.850;2024-03-23T15:41:45;20.20;46.10
6986;DHT22;3533;51.246;6.850;2024-03-23T15:44:11;20.30;46.20
6986;DHT22;3533;51.246;6.850;2024-03-23T15:46:36;20.20;46.10
6986;DHT22;3533;51.246;6.850;2024-03-23T15:49:02;20.20;46.10
6986;DHT22;3533;51.246;6.850;2024-03-23T15:51:28;20.20;46.10
6986;DHT22;3533;51.246;6.850;2024-03-23T15:53:58;20.20;46.20
6986;DHT22;3533;51.246;6.850;2024-03-23T15:56:24;20.20;46.20
6986;DHT22;3533;51.246;6.850;2024-03-23T15:58:50;20.20;46.20
6986;DHT22;3533;51.246;6.850;2024-03-23T16:01:15;20.20;46.20
6986;DHT22;3533;51.246;6.850;2024-03-23T16:03:41;20.20;46.20
6986;DHT22;3533;51.246;6.850;2024-03-23T16:06:07;20.20;46.20
6986;DHT22;3533;51.246;6.850;2024-03-23T16:08:33;20.20;46.20
6986;DHT22;3533;51.246;6.850;2024-03-23T16:11:07;20.20;46.30
6986;DHT22;3533;51.246;6.850;2024-03-23T16:13:33;20.20;46.20
6986;DHT22;3533;51.246;6.850;2024-03-23T16:16:00;20.20;46.20
6986;DHT22;3533;51.246;6.850;2024-03-23T16:18:29;20.20;46.20
6986;DHT22;3533;51.246;6.850;2024-03-23T16:20:59;20.20;46.20
6986;DHT22;3533;51.246;6.850;2024-03-23T16:23:25;20.20;46.20
6986;DHT22;3533;51.246;6.850;2024-03-23T16:25:52;20.20;46.20
6986;DHT22;3533;51.246;6.850;2024-03-23T16:28:28;20.20;46.30
6986;DHT22;3533;51.246;6.850;2024-03-23T16:31:01;20.20;46.20
6986;DHT22;3533;51.246;6.850;2024-03-23T16:33:28;20.20;46.20
6986;DHT22;3533;51.246;6.850;2024-03-23T16:36:07;20.20;46.20
6986;DHT22;3533;51.246;6.850;2024-03-23T16:38:40;20.20;46.20
6986;DHT22;3533;51.246;6.850;2024-03-23T16:43:33;20.20;46.20
6986;DHT22;3533;51.246;6.850;2024-03-23T16:46:04;20.20;46.30
6986;DHT22;3533;51.246;6.850;2024-03-23T16:48:31;20.20;46.30
6986;DHT22;3533;51.246;6.850;2024-03-23T16:51:01;20.20;46.30
6986;DHT22;3533;51.246;6.850;2024-03-23T16:53:29;20.20;46.20
6986;DHT22;3533;51.246;6.850;2024-03-23T16:58:24;20.20;46.30
6986;DHT22;3533;51.246;6.850;2024-03-23T17:00:50;20.20;46.20
6986;DHT22;3533;51.246;6.850;2024-03-23T17:03:16;20.20;46.20
6986;DHT22;3533;51.246;6.850;2024-03-23T17:05:41;20.20;46.20
6986;DHT22;3533;51.246;6.850;2024-03-23T17:08:08;20.30;46.30